createdAt,value
2022-07-26T00:01:49.490Z,100525.28
2022-07-26T00:04:17.127Z,100535.94
2022-07-26T00:06:44.839Z,100532.31
2022-07-26T00:09:12.456Z,100533.28
2022-07-26T00:11:41.440Z,100535.22
2022-07-26T00:14:10.212Z,100528.09
2022-07-26T00:16:39.132Z,100528.66
2022-07-26T00:19:08.133Z,100532.31
2022-07-26T00:21:37.118Z,100537.88
2022-07-26T00:24:09.410Z,100536.78
2022-07-26T00:26:37.618Z,100532.31
2022-07-26T00:29:07.023Z,100528.94
2022-07-26T00:31:35.013Z,100534.84
2022-07-26T00:34:02.639Z,100533.72
2022-07-26T00:36:30.293Z,100538.09
2022-07-26T00:38:57.889Z,100539.31
2022-07-26T00:41:25.478Z,100541.00
2022-07-26T00:43:57.294Z,100537.50
2022-07-26T00:46:26.458Z,100535.56
2022-07-26T00:48:54.241Z,100543.88
2022-07-26T00:51:21.957Z,100541.00
2022-07-26T00:53:50.733Z,100543.66
2022-07-26T00:56:18.864Z,100541.25
2022-07-26T00:58:46.456Z,100551.41
2022-07-26T01:01:14.272Z,100542.25
2022-07-26T01:03:43.260Z,100542.94
2022-07-26T01:06:10.859Z,100547.81
2022-07-26T01:08:38.645Z,100547.63
2022-07-26T01:11:06.512Z,100547.63
2022-07-26T01:13:35.510Z,100546.19
2022-07-26T01:16:03.580Z,100543.31
2022-07-26T01:18:31.318Z,100545.25
2022-07-26T01:21:01.828Z,100543.09
2022-07-26T01:23:43.626Z,100546.13
2022-07-26T01:26:11.638Z,100547.13
2022-07-26T01:28:41.189Z,100544.84
2022-07-26T01:31:09.654Z,100549.53
2022-07-26T01:33:38.052Z,100554.25
2022-07-26T01:36:06.311Z,100544.84
2022-07-26T01:38:34.041Z,100540.47
2022-07-26T01:41:03.013Z,100548.59
2022-07-26T01:43:30.681Z,100543.16
2022-07-26T01:45:58.786Z,100550.88
2022-07-26T01:48:26.626Z,100549.69
2022-07-26T01:50:54.273Z,100545.13
2022-07-26T01:53:21.848Z,100539.44
2022-07-26T01:55:49.463Z,100553.09
2022-07-26T01:58:18.622Z,100549.47
2022-07-26T02:00:46.281Z,100561.81
2022-07-26T02:03:13.931Z,100560.34
2022-07-26T02:05:41.677Z,100562.28
2022-07-26T02:08:10.227Z,100559.34
2022-07-26T02:10:56.256Z,100553.31
2022-07-26T02:13:25.873Z,100559.34
2022-07-26T02:15:53.523Z,100561.28
2022-07-26T02:18:21.145Z,100566.25
2022-07-26T02:20:48.733Z,100564.78
2022-07-26T02:23:16.310Z,100562.25
2022-07-26T02:25:43.926Z,100572.16
2022-07-26T02:28:11.593Z,100569.75
2022-07-26T02:30:40.806Z,100569.75
2022-07-26T02:33:08.451Z,100569.50
2022-07-26T02:35:36.388Z,100570.59
2022-07-26T02:38:04.629Z,100567.31
2022-07-26T02:40:32.309Z,100569.72
2022-07-26T02:42:59.995Z,100570.19
2022-07-26T02:45:27.728Z,100573.09
2022-07-26T02:47:57.109Z,100576.72
2022-07-26T02:50:26.080Z,100577.69
2022-07-26T02:52:54.228Z,100574.53
2022-07-26T02:55:24.770Z,100578.88
2022-07-26T02:57:53.048Z,100580.34
2022-07-26T03:00:21.999Z,100581.53
2022-07-26T03:02:51.277Z,100583.47
2022-07-26T03:05:21.528Z,100579.47
2022-07-26T03:07:49.500Z,100581.50
2022-07-26T03:10:17.955Z,100586.19
2022-07-26T03:12:45.928Z,100590.63
2022-07-26T03:15:13.645Z,100599.56
2022-07-26T03:17:41.216Z,100593.28
2022-07-26T03:20:10.386Z,100597.66
2022-07-26T03:22:39.500Z,100605.50
2022-07-26T03:25:07.534Z,100603.97
2022-07-26T03:27:35.379Z,100607.50
2022-07-26T03:30:02.946Z,100614.28
2022-07-26T03:32:30.536Z,100601.56
2022-07-26T03:34:58.122Z,100598.66
2022-07-26T03:37:25.827Z,100603.59
2022-07-26T03:40:15.611Z,100603.81
2022-07-26T03:42:43.185Z,100608.69
2022-07-26T03:45:11.744Z,100612.75
2022-07-26T03:47:39.356Z,100618.31
2022-07-26T03:50:08.551Z,100626.38
2022-07-26T03:52:36.366Z,100619.75
2022-07-26T03:55:24.472Z,100634.06
2022-07-26T03:57:52.734Z,100631.84
2022-07-26T04:00:20.345Z,100618.44
2022-07-26T04:02:47.977Z,100626.06
2022-07-26T04:05:15.625Z,100624.75
2022-07-26T04:07:43.687Z,100625.59
2022-07-26T04:10:20.710Z,100624.75
2022-07-26T04:12:48.331Z,100627.63
2022-07-26T04:15:19.012Z,100635.13
2022-07-26T04:17:48.175Z,100631.75
2022-07-26T04:20:16.478Z,100628.38
2022-07-26T04:22:44.877Z,100636.34
2022-07-26T04:25:12.689Z,100641.66
2022-07-26T04:27:40.346Z,100643.09
2022-07-26T04:30:14.425Z,100637.34
2022-07-26T04:32:45.902Z,100655.00
2022-07-26T04:35:14.620Z,100645.84
2022-07-26T04:37:43.067Z,100654.84
2022-07-26T04:40:13.080Z,100641.81
2022-07-26T04:42:40.993Z,100636.97
2022-07-26T04:45:10.828Z,100634.94
2022-07-26T04:47:38.439Z,100636.53
2022-07-26T04:50:09.265Z,100640.16
2022-07-26T04:52:36.939Z,100641.31
2022-07-26T04:55:05.076Z,100662.16
2022-07-26T04:57:32.728Z,100682.78
2022-07-26T05:00:20.339Z,100688.06
2022-07-26T05:02:48.413Z,100682.88
2022-07-26T05:05:17.415Z,100688.53
2022-07-26T05:07:46.381Z,100687.78
2022-07-26T05:10:14.709Z,100696.72
2022-07-26T05:12:42.308Z,100700.84
2022-07-26T05:15:13.932Z,100704.47
2022-07-26T05:17:42.779Z,100712.94
2022-07-26T05:20:13.023Z,100703.25
2022-07-26T05:22:42.078Z,100710.03
2022-07-26T05:25:10.299Z,100705.94
2022-07-26T05:27:38.986Z,100713.94
2022-07-26T05:30:07.478Z,100708.25
2022-07-26T05:32:35.142Z,100714.66
2022-07-26T05:35:02.783Z,100713.94
2022-07-26T05:37:30.392Z,100727.13
2022-07-26T05:39:59.340Z,100733.22
2022-07-26T05:42:26.950Z,100719.84
2022-07-26T05:44:55.948Z,100728.31
2022-07-26T05:47:23.659Z,100732.06
2022-07-26T05:49:51.233Z,100733.28
2022-07-26T05:52:18.839Z,100738.94
2022-07-26T05:54:46.416Z,100740.75
2022-07-26T05:57:15.409Z,100747.41
2022-07-26T05:59:43.021Z,100757.84
2022-07-26T06:02:10.638Z,100759.63
2022-07-26T06:04:38.260Z,100762.41
2022-07-26T06:07:05.944Z,100755.69
2022-07-26T06:09:33.643Z,100761.94
2022-07-26T06:12:01.240Z,100753.66
2022-07-26T06:14:30.172Z,100761.28
2022-07-26T06:16:58.052Z,100750.72
2022-07-26T06:19:25.683Z,100755.28
2022-07-26T06:21:53.226Z,100750.22
2022-07-26T06:24:20.816Z,100734.03
2022-07-26T06:26:54.742Z,100740.44
2022-07-26T06:29:32.319Z,100743.50
2022-07-26T06:32:01.972Z,100751.88
2022-07-26T06:34:29.648Z,100755.47
2022-07-26T06:36:57.321Z,100757.16
2022-07-26T06:39:24.997Z,100753.78
2022-07-26T06:41:52.604Z,100750.44
2022-07-26T06:44:20.193Z,100750.13
2022-07-26T06:46:48.160Z,100766.31
2022-07-26T06:49:20.772Z,100769.66
2022-07-26T06:51:49.950Z,100773.44
2022-07-26T06:54:17.524Z,100771.66
2022-07-26T06:56:45.128Z,100770.47
2022-07-26T06:59:12.729Z,100781.78
2022-07-26T07:01:51.442Z,100779.94
2022-07-26T07:04:29.208Z,100785.53
2022-07-26T07:06:57.388Z,100793.56
2022-07-26T07:09:25.569Z,100810.00
2022-07-26T07:11:57.366Z,100832.22
2022-07-26T07:14:28.355Z,100831.22
2022-07-26T07:16:56.521Z,100827.88
2022-07-26T07:19:24.228Z,100839.28
2022-07-26T07:21:53.516Z,100838.94
2022-07-26T07:24:21.433Z,100841.44
2022-07-26T07:26:50.076Z,100848.06
2022-07-26T07:29:20.243Z,100845.34
2022-07-26T07:31:49.711Z,100848.34
2022-07-26T07:34:19.604Z,100858.81
2022-07-26T07:36:47.591Z,100847.41
2022-07-26T07:39:17.306Z,100846.38
2022-07-26T07:41:45.409Z,100849.50
2022-07-26T07:44:12.951Z,100849.75
2022-07-26T07:46:40.905Z,100857.00
2022-07-26T07:49:10.802Z,100865.56
2022-07-26T07:51:38.785Z,100857.59
2022-07-26T07:54:06.511Z,100854.47
2022-07-26T07:56:35.462Z,100862.47
2022-07-26T07:59:03.041Z,100857.31
2022-07-26T08:01:40.427Z,100864.06
2022-07-26T08:04:08.861Z,100869.84
2022-07-26T08:06:36.720Z,100873.50
2022-07-26T08:09:06.429Z,100863.13
2022-07-26T08:11:35.606Z,100861.72
2022-07-26T08:14:04.202Z,100863.72
2022-07-26T08:16:32.067Z,100867.94
2022-07-26T08:18:59.727Z,100861.44
2022-07-26T08:21:28.913Z,100860.66
2022-07-26T08:23:57.285Z,100863.09
2022-07-26T08:26:25.212Z,100871.75
2022-07-26T08:28:59.935Z,100877.19
2022-07-26T08:31:28.308Z,100884.22
2022-07-26T08:33:56.268Z,100873.69
2022-07-26T08:36:24.372Z,100884.16
2022-07-26T08:38:52.541Z,100871.44
2022-07-26T08:41:20.229Z,100880.75
2022-07-26T08:43:51.907Z,100882.34
2022-07-26T08:46:25.743Z,100883.91
2022-07-26T08:48:54.020Z,100894.22
2022-07-26T08:51:23.882Z,100898.50
2022-07-26T08:53:51.845Z,100907.34
2022-07-26T08:56:19.461Z,100900.28
2022-07-26T08:58:47.063Z,100896.91
2022-07-26T09:01:15.049Z,100900.50
2022-07-26T09:03:45.726Z,100896.31
2022-07-26T09:06:18.230Z,100898.22
2022-07-26T09:08:46.652Z,100909.25
2022-07-26T09:11:32.052Z,100901.78
2022-07-26T09:14:01.456Z,100905.91
2022-07-26T09:16:29.972Z,100910.13
2022-07-26T09:19:15.859Z,100922.31
2022-07-26T09:21:43.545Z,100930.88
2022-07-26T09:24:11.444Z,100936.47
2022-07-26T09:26:39.372Z,100941.50
2022-07-26T09:29:09.170Z,100946.81
2022-07-26T09:31:37.580Z,100948.97
2022-07-26T09:34:07.651Z,100957.91
2022-07-26T09:36:51.440Z,100954.97
2022-07-26T09:39:22.767Z,100954.47
2022-07-26T09:42:26.738Z,100948.84
2022-07-26T09:44:56.432Z,100947.13
2022-07-26T09:47:24.909Z,100943.72
2022-07-26T09:50:11.691Z,100941.63
2022-07-26T09:52:39.617Z,100933.56
2022-07-26T09:55:09.302Z,100949.06
2022-07-26T09:57:36.954Z,100944.06
2022-07-26T10:00:05.916Z,100954.44
2022-07-26T10:02:35.675Z,100952.06
2022-07-26T10:05:05.076Z,100963.75
2022-07-26T10:07:32.984Z,100954.16
2022-07-26T10:10:03.477Z,100955.16
2022-07-26T10:12:33.112Z,100955.00
2022-07-26T10:15:00.754Z,100960.19
2022-07-26T10:17:46.271Z,100953.44
2022-07-26T10:20:44.195Z,100958.13
2022-07-26T10:23:37.077Z,100964.88
2022-07-26T10:26:05.589Z,100975.50
2022-07-26T10:28:34.368Z,100983.66
2022-07-26T10:31:24.610Z,100995.88
2022-07-26T10:33:53.724Z,100995.19
2022-07-26T10:36:34.606Z,101008.03
2022-07-26T10:39:07.682Z,101023.66
2022-07-26T10:41:37.824Z,101017.22
2022-07-26T10:44:24.072Z,101014.47
2022-07-26T10:47:20.144Z,101020.78
2022-07-26T10:49:56.315Z,101024.03
2022-07-26T10:52:27.364Z,101027.16
2022-07-26T10:55:17.129Z,101017.56
2022-07-26T10:57:47.292Z,101020.25
2022-07-26T11:00:23.854Z,101004.31
2022-07-26T11:02:55.982Z,101014.16
2022-07-26T11:05:28.602Z,101013.63
2022-07-26T11:08:01.424Z,101021.31
2022-07-26T11:10:31.239Z,101022.41
2022-07-26T11:13:03.776Z,101025.56
2022-07-26T11:15:31.618Z,101024.97
2022-07-26T11:18:24.116Z,101022.09
2022-07-26T11:20:55.980Z,101026.97
2022-07-26T11:23:26.687Z,101026.97
2022-07-26T11:26:16.727Z,101035.69
2022-07-26T11:28:55.753Z,101037.75
2022-07-26T11:31:49.446Z,101042.16
2022-07-26T11:34:22.027Z,101052.84
2022-07-26T11:36:51.271Z,101054.28
2022-07-26T11:39:23.920Z,101043.09
2022-07-26T11:41:53.232Z,101047.22
2022-07-26T11:44:21.908Z,101044.00
2022-07-26T11:46:50.148Z,101037.09
2022-07-26T11:49:19.375Z,101041.63
2022-07-26T11:51:54.220Z,101036.56
2022-07-26T11:54:25.021Z,101046.06
2022-07-26T11:56:54.786Z,101042.91
2022-07-26T11:59:23.238Z,101043.31
2022-07-26T12:01:51.177Z,101041.34
2022-07-26T12:04:20.989Z,101046.25
2022-07-26T12:06:49.045Z,101042.41
2022-07-26T12:09:31.472Z,101046.69
2022-07-26T12:11:59.272Z,101049.44
2022-07-26T12:14:27.489Z,101055.00
2022-07-26T12:16:55.597Z,101057.16
2022-07-26T12:19:26.235Z,101058.06
2022-07-26T12:21:56.156Z,101053.59
2022-07-26T12:24:42.665Z,101056.75
2022-07-26T12:27:12.902Z,101055.75
2022-07-26T12:29:41.827Z,101058.56
2022-07-26T12:32:13.029Z,101080.53
2022-07-26T12:34:41.996Z,101078.41
2022-07-26T12:37:17.772Z,101085.84
2022-07-26T12:40:09.194Z,101084.78
2022-07-26T12:42:38.729Z,101085.03
2022-07-26T12:45:08.673Z,101077.97
2022-07-26T12:47:37.217Z,101090.25
2022-07-26T12:50:05.122Z,101082.69
2022-07-26T12:52:33.978Z,101085.47
2022-07-26T12:55:02.502Z,101088.06
2022-07-26T12:57:31.726Z,101085.34
2022-07-26T12:59:59.460Z,101075.38
2022-07-26T13:02:27.061Z,101079.84
2022-07-26T13:05:00.011Z,101082.63
2022-07-26T13:07:28.244Z,101078.03
2022-07-26T13:10:22.562Z,101082.91
2022-07-26T13:12:44.848Z,101080.06
2022-07-26T13:15:12.515Z,101074.13
2022-07-26T13:17:40.484Z,101097.81
2022-07-26T13:20:09.182Z,101091.66
2022-07-26T13:22:37.658Z,101100.38
2022-07-26T13:25:08.281Z,101095.28
2022-07-26T13:27:39.085Z,101096.47
2022-07-26T13:30:12.162Z,101100.88
2022-07-26T13:32:39.816Z,101097.94
2022-07-26T13:35:08.436Z,101093.56
2022-07-26T13:37:38.102Z,101081.63
2022-07-26T13:40:07.059Z,101093.53
2022-07-26T13:42:34.678Z,101082.66
2022-07-26T13:45:02.340Z,101082.50
2022-07-26T13:47:31.252Z,101086.19
2022-07-26T13:49:58.843Z,101072.94
2022-07-26T13:52:26.442Z,101085.63
2022-07-26T13:54:54.289Z,101079.78
2022-07-26T13:57:21.879Z,101075.13
2022-07-26T13:59:49.470Z,101095.03
2022-07-26T14:02:17.231Z,101093.66
2022-07-26T14:04:46.289Z,101095.63
2022-07-26T14:07:14.258Z,101089.19
2022-07-26T14:09:41.860Z,101100.00
2022-07-26T14:12:10.516Z,101094.06
2022-07-26T14:14:38.117Z,101090.25
2022-07-26T14:17:05.798Z,101099.16
2022-07-26T14:19:33.451Z,101085.31
2022-07-26T14:22:02.449Z,101092.50
2022-07-26T14:24:30.180Z,101089.31
2022-07-26T14:26:59.609Z,101087.56
2022-07-26T14:29:27.953Z,101094.63
2022-07-26T14:31:55.661Z,101104.41
2022-07-26T14:34:23.317Z,101104.91
2022-07-26T14:36:50.919Z,101110.69
2022-07-26T14:39:19.839Z,101109.69
2022-07-26T14:41:48.049Z,101101.94
2022-07-26T14:44:15.613Z,101111.19
2022-07-26T14:46:43.731Z,101113.03
2022-07-26T14:49:11.354Z,101101.13
2022-07-26T14:51:39.147Z,101104.69
2022-07-26T14:54:07.019Z,101100.88
2022-07-26T14:56:38.694Z,101114.19
2022-07-26T14:59:06.436Z,101108.19
2022-07-26T15:01:34.112Z,101112.59
2022-07-26T15:04:01.794Z,101107.88
2022-07-26T15:06:29.371Z,101111.03
2022-07-26T15:08:56.908Z,101111.59
2022-07-26T15:11:24.500Z,101112.81
2022-07-26T15:13:54.500Z,101117.09
2022-07-26T15:16:22.185Z,101116.44
2022-07-26T15:18:49.800Z,101112.38
2022-07-26T15:21:17.467Z,101104.72
2022-07-26T15:23:45.214Z,101110.69
2022-07-26T15:26:12.790Z,101113.94
2022-07-26T15:28:40.369Z,101123.06
2022-07-26T15:31:10.496Z,101114.44
2022-07-26T15:33:38.098Z,101115.81
2022-07-26T15:36:06.665Z,101112.13
2022-07-26T15:38:34.440Z,101103.16
2022-07-26T15:41:02.035Z,101106.81
2022-07-26T15:43:44.067Z,101105.19
2022-07-26T15:46:18.122Z,101115.31
2022-07-26T15:48:47.177Z,101109.09
2022-07-26T15:51:15.621Z,101112.50
2022-07-26T15:53:46.424Z,101104.16
2022-07-26T15:56:14.427Z,101108.44
2022-07-26T15:58:42.023Z,101105.84
2022-07-26T16:01:09.846Z,101110.25
2022-07-26T16:03:38.864Z,101100.88
2022-07-26T16:06:06.525Z,101100.56
2022-07-26T16:08:43.082Z,101102.13
2022-07-26T16:11:21.942Z,101098.34
2022-07-26T16:13:49.540Z,101110.38
2022-07-26T16:16:17.263Z,101110.66
2022-07-26T16:18:46.344Z,101106.25
2022-07-26T16:21:14.003Z,101111.25
2022-07-26T16:23:41.645Z,101125.81
2022-07-26T16:26:09.267Z,101115.41
2022-07-26T16:28:37.013Z,101114.44
2022-07-26T16:31:04.679Z,101117.75
2022-07-26T16:33:32.606Z,101120.03
2022-07-26T16:36:06.146Z,101114.56
2022-07-26T16:38:34.157Z,101109.19
2022-07-26T16:41:01.863Z,101115.22
2022-07-26T16:43:29.525Z,101112.38
2022-07-26T16:45:57.108Z,101105.25
2022-07-26T16:48:24.729Z,101107.56
2022-07-26T16:50:52.376Z,101117.13
2022-07-26T16:53:21.388Z,101113.97
2022-07-26T16:55:51.337Z,101113.25
2022-07-26T16:58:19.013Z,101119.03
2022-07-26T17:00:47.149Z,101134.94
2022-07-26T17:03:15.885Z,101133.16
2022-07-26T17:05:44.988Z,101123.19
2022-07-26T17:08:12.813Z,101129.84
2022-07-26T17:10:41.776Z,101125.94
2022-07-26T17:13:09.446Z,101126.06
2022-07-26T17:15:37.413Z,101120.13
2022-07-26T17:18:05.536Z,101118.28
2022-07-26T17:20:33.453Z,101125.19
2022-07-26T17:23:01.058Z,101120.72
2022-07-26T17:25:28.680Z,101123.13
2022-07-26T17:27:57.669Z,101120.16
2022-07-26T17:30:25.600Z,101129.00
2022-07-26T17:32:53.336Z,101124.53
2022-07-26T17:35:20.965Z,101129.97
2022-07-26T17:37:48.653Z,101128.28
2022-07-26T17:40:16.920Z,101144.28
2022-07-26T17:42:44.556Z,101131.88
2022-07-26T17:45:13.619Z,101143.13
2022-07-26T17:47:41.367Z,101139.34
2022-07-26T17:52:58.025Z,101143.81
2022-07-26T17:55:25.634Z,101137.59
2022-07-26T17:57:53.508Z,101130.84
2022-07-26T18:00:23.684Z,101140.03
2022-07-26T18:02:56.233Z,101157.72
2022-07-26T18:05:29.938Z,101142.31
2022-07-26T18:08:01.150Z,101144.72
2022-07-26T18:10:29.136Z,101142.75
2022-07-26T18:12:56.937Z,101149.16
2022-07-26T18:15:26.184Z,101153.63
2022-07-26T18:17:54.367Z,101154.06
2022-07-26T18:20:24.322Z,101160.31
2022-07-26T18:22:53.608Z,101162.56
2022-07-26T18:25:21.418Z,101158.47
2022-07-26T18:27:49.734Z,101158.25
2022-07-26T18:30:17.375Z,101161.47
2022-07-26T18:32:46.350Z,101164.88
2022-07-26T18:35:14.011Z,101165.50
2022-07-26T18:37:41.681Z,101171.38
2022-07-26T18:40:10.202Z,101165.97
2022-07-26T18:42:37.858Z,101159.59
2022-07-26T18:45:06.353Z,101163.59
2022-07-26T18:47:33.964Z,101163.16
2022-07-26T18:50:02.968Z,101155.63
2022-07-26T18:52:32.503Z,101162.94
2022-07-26T18:55:02.252Z,101168.13
2022-07-26T18:57:29.909Z,101168.22
2022-07-26T18:59:57.511Z,101178.50
2022-07-26T19:02:25.142Z,101181.81
2022-07-26T19:04:52.799Z,101177.97
2022-07-26T19:07:21.737Z,101191.63
2022-07-26T19:09:49.370Z,101191.34
2022-07-26T19:12:17.049Z,101195.06
2022-07-26T19:14:44.659Z,101193.75
2022-07-26T19:17:12.277Z,101199.84
2022-07-26T19:19:39.929Z,101187.19
2022-07-26T19:22:07.504Z,101198.19
2022-07-26T19:24:36.928Z,101198.78
2022-07-26T19:27:04.778Z,101196.31
2022-07-26T19:29:32.373Z,101204.59
2022-07-26T19:31:59.952Z,101198.22
2022-07-26T19:34:27.551Z,101202.97
2022-07-26T19:36:55.141Z,101203.53
2022-07-26T19:39:22.766Z,101196.44
2022-07-26T19:41:51.722Z,101204.38
2022-07-26T19:44:19.614Z,101205.06
2022-07-26T19:46:47.534Z,101209.00
2022-07-26T19:49:17.096Z,101220.91
2022-07-26T19:51:45.909Z,101209.88
2022-07-26T19:54:14.102Z,101215.47
2022-07-26T19:56:44.219Z,101218.47
2022-07-26T19:59:15.928Z,101210.13
2022-07-26T20:01:47.459Z,101218.16
2022-07-26T20:04:15.147Z,101222.78
2022-07-26T20:06:42.716Z,101215.88
2022-07-26T20:09:10.801Z,101217.94
2022-07-26T20:11:38.766Z,101231.97
2022-07-26T20:14:06.364Z,101227.06
2022-07-26T20:16:35.401Z,101237.84
2022-07-26T20:19:03.531Z,101235.38
2022-07-26T20:21:31.217Z,101235.59
2022-07-26T20:23:58.798Z,101241.34
2022-07-26T20:26:26.396Z,101246.44
2022-07-26T20:28:55.185Z,101252.50
2022-07-26T20:31:22.858Z,101242.94
2022-07-26T20:33:51.913Z,101245.59
2022-07-26T20:36:19.520Z,101252.03
2022-07-26T20:38:51.500Z,101248.78
2022-07-26T20:41:19.720Z,101240.06
2022-07-26T20:43:48.535Z,101240.78
2022-07-26T20:46:16.244Z,101240.97
2022-07-26T20:48:43.984Z,101243.88
2022-07-26T20:51:13.317Z,101246.38
2022-07-26T20:53:41.734Z,101255.50
2022-07-26T20:56:10.247Z,101253.88
2022-07-26T20:58:37.920Z,101266.03
2022-07-26T21:01:05.658Z,101259.34
2022-07-26T21:03:33.267Z,101266.03
2022-07-26T21:06:00.857Z,101264.53
2022-07-26T21:08:29.835Z,101269.13
2022-07-26T21:10:57.481Z,101269.19
2022-07-26T21:13:25.390Z,101272.31
2022-07-26T21:15:54.277Z,101278.66
2022-07-26T21:18:22.348Z,101266.59
2022-07-26T21:20:50.096Z,101272.19
2022-07-26T21:23:18.500Z,101265.53
2022-07-26T21:25:49.081Z,101268.16
2022-07-26T21:28:25.859Z,101283.31
2022-07-26T21:30:54.152Z,101277.97
2022-07-26T21:33:21.851Z,101291.94
2022-07-26T21:35:49.460Z,101295.53
2022-07-26T21:38:17.180Z,101287.13
2022-07-26T21:40:44.948Z,101287.66
2022-07-26T21:43:13.918Z,101291.31
2022-07-26T21:45:41.563Z,101289.44
2022-07-26T21:48:09.396Z,101277.16
2022-07-26T21:50:36.958Z,101282.75
2022-07-26T21:53:04.652Z,101282.28
2022-07-26T21:55:32.259Z,101285.28
2022-07-26T21:57:59.822Z,101282.53
2022-07-26T22:00:28.756Z,101283.44
2022-07-26T22:02:56.375Z,101283.38
2022-07-26T22:05:37.750Z,101283.53
2022-07-26T22:08:09.857Z,101291.22
2022-07-26T22:10:44.441Z,101286.34
2022-07-26T22:13:12.760Z,101282.91
2022-07-26T22:15:42.343Z,101288.97
2022-07-26T22:18:10.170Z,101301.63
2022-07-26T22:20:37.977Z,101293.78
2022-07-26T22:23:07.383Z,101293.00
2022-07-26T22:25:36.392Z,101293.38
2022-07-26T22:28:05.388Z,101297.81
2022-07-26T22:30:33.097Z,101296.66
2022-07-26T22:33:03.373Z,101288.03
2022-07-26T22:35:36.373Z,101290.81
2022-07-26T22:38:05.614Z,101295.31
2022-07-26T22:40:33.857Z,101296.72
2022-07-26T22:43:01.647Z,101289.16
2022-07-26T22:45:30.572Z,101293.00
2022-07-26T22:47:58.634Z,101298.13
2022-07-26T22:50:27.933Z,101289.13
2022-07-26T22:52:55.844Z,101287.56
2022-07-26T22:55:23.482Z,101289.41
2022-07-26T22:57:51.215Z,101295.00
2022-07-26T23:00:20.003Z,101299.28
2022-07-26T23:02:47.875Z,101295.56
2022-07-26T23:05:16.658Z,101288.56
2022-07-26T23:07:47.807Z,101292.22
2022-07-26T23:10:16.578Z,101297.84
2022-07-26T23:12:44.474Z,101291.16
2022-07-26T23:15:12.494Z,101289.44
2022-07-26T23:17:40.147Z,101294.84
2022-07-26T23:20:09.666Z,101285.38
2022-07-26T23:22:37.253Z,101296.84
2022-07-26T23:25:07.129Z,101292.44
2022-07-26T23:27:34.981Z,101300.72
2022-07-26T23:30:02.621Z,101296.16
2022-07-26T23:32:30.201Z,101295.28
2022-07-26T23:34:57.777Z,101291.09
2022-07-26T23:37:25.374Z,101291.16
2022-07-26T23:39:52.945Z,101295.88
2022-07-26T23:42:21.907Z,101301.66
2022-07-26T23:44:49.490Z,101295.16
2022-07-26T23:47:17.187Z,101296.16
2022-07-26T23:49:44.883Z,101299.28
2022-07-26T23:52:12.460Z,101288.44
2022-07-26T23:54:40.070Z,101291.00
2022-07-26T23:57:07.697Z,101291.72
2022-07-26T23:59:36.623Z,101294.84
